• Join FlightAware (Why Join?)
  • Login
  • US Flag 
12:41AM EST


 

Airport Tracker/Info


-or-


 

Live Flight TrackerFlight Track Log ✈ UAL5914 ✈ 18-Apr-2013 ✈ KDEN - KGUC

Flight Track Log - Related Links

Times and Time Zones

All times are in EDT time to prevent confusion due to time zone crossing. See the UAL5914 flight status page for this flight to view local times or setup timezone preferences in your user account.

Time Position Orientation Groundspeed Altitude Reporting Facility
EDT Latitude Longitude Course Direction KTS MPH feet Rate Location/Type
09:47PM 39.8000 -104.9167 251° West 279 321 11,300  Level Denver TRACON
09:48PM 39.7892 -104.9444 243° Southwest 275 316 12,300 2,520 Climbing Denver Center
09:49PM 39.7589 -105.0475 249° West 303 349 14,800 2,340 Climbing Denver Center
09:50PM 39.7211 -105.1528 245° Southwest 320 368 17,200 1,800 Climbing Denver Center
09:51PM 39.6760 -105.2146 237° Southwest  Level FlightAware Approximate
09:51PM 39.6769 -105.2733 245° Southwest 348 400 18,600  Level Denver Center
09:52PM 39.6358 -105.3199 251° West  Level FlightAware Approximate
09:52PM 39.6322 -105.4008 246° West 388 447 19,500  Level Denver Center
09:53PM 39.5775 -105.5450 244° Southwest 419 482 20,800 1,320 Climbing Denver Center
09:54PM 39.5211 -105.7219 248° West 430 495 22,500 1,440 Climbing Denver Center
09:55PM 39.4753 -105.8867 250° West 413 475 24,100 1,320 Climbing Denver Center
09:56PM 39.4367 -106.0317 251° West 421 484 25,600 1,440 Climbing Denver Center
09:57PM 39.3925 -106.1747 248° West 420 483 27,100 1,140 Climbing Denver Center
09:58PM 39.2819 -106.2889 219° Southwest 456 525 28,000 420 Climbing Denver Center
09:59PM 39.1775 -106.3847 215° Southwest 473 544 28,000  Level Denver Center
10:00PM 39.0478 -106.4967 214° Southwest 497 572 28,000 -180 Level Denver Center
10:01PM 38.9339 -106.5936 214° Southwest 508 585 27,700 -1,740 Descending Denver Center
10:02PM 38.8161 -106.6928 213° Southwest 498 573 24,500 -3,300 Descending Denver Center
10:03PM 38.7039 -106.7878 213° Southwest 486 559 20,900 -3,420 Descending Denver Center
10:04PM 38.6000 -106.8753 213° Southwest 458 527 17,500 -2,460 Descending Denver Center
10:05PM 38.5106 -106.9517 214° Southwest 411 473 15,900 -1,080 Descending Denver Center
10:06PM 38.4183 -107.0356 215° Southwest 392 451 15,300 -600 Descending Denver Center
10:08PM 38.5143 -106.9364 39° Northeast  Level FlightAware Approximate
10:15PM 38.5333 -106.9167 38° Northeast  Level FlightAware Approximate
10:16PM 38.5339 -106.9330 38° Northeast  Level Estimated
10:17PM 38.5339 -106.9330 38° Northeast  Level Estimated